St Albans, United Kingdom
Current Conditions -  °F | °C
As of 3:20 AM on Monday 22 Dec 2014 (Local Time) from EGGW Reporting Station
Overcast Overcast  
Wind Chill: 54°   Ceiling: 1000
Heat Index: 54°   Visibility: 6mi
Dew Point: 50°   Wind: 21mph
Humidity: 88%   Direction: 230°SW
Pressure: 30.03"   Gusts: 33mph
Location:  51.77°N, 0.34°W
Report Text: EGGW 220320Z 23018G29KT 9999 OVC010 12/10 Q1017
Loading
Personal Weather Stations






























Interactive Weather Map New forecast layout! Learn more

10-Day Weather Forecast

Advertisements
Track Severe Weather on mobile